createdAt,value
2019-06-07T00:00:39.365Z,16.20
2019-06-07T00:03:02.313Z,16.10
2019-06-07T00:05:33.109Z,16.10
2019-06-07T00:08:07.849Z,16.10
2019-06-07T00:10:36.899Z,16.20
2019-06-07T00:13:06.825Z,16.30
2019-06-07T00:15:36.472Z,16.10
2019-06-07T00:18:10.268Z,16.10
2019-06-07T00:20:38.044Z,16.20
2019-06-07T00:23:08.699Z,16.10
2019-06-07T00:25:38.894Z,16.20
2019-06-07T00:28:08.537Z,16.10
2019-06-07T00:30:50.723Z,16.00
2019-06-07T00:33:11.017Z,16.00
2019-06-07T00:35:40.688Z,16.00
2019-06-07T00:38:11.786Z,15.90
2019-06-07T00:40:41.591Z,16.00
2019-06-07T00:43:15.167Z,16.00
2019-06-07T00:45:42.399Z,16.10
2019-06-07T00:48:19.664Z,16.20
2019-06-07T00:50:43.293Z,16.10
2019-06-07T00:53:17.402Z,16.00
2019-06-07T00:55:45.059Z,15.80
2019-06-07T00:58:15.475Z,15.80
2019-06-07T01:00:46.982Z,15.80
2019-06-07T01:03:17.464Z,15.80
2019-06-07T01:05:47.904Z,15.90
2019-06-07T01:08:20.024Z,16.00
2019-06-07T01:10:53.722Z,16.00
2019-06-07T01:13:22.737Z,16.00
2019-06-07T01:15:51.262Z,15.90
2019-06-07T01:18:41.024Z,15.90
2019-06-07T01:20:52.060Z,15.80
2019-06-07T01:24:02.511Z,15.80
2019-06-07T01:25:52.808Z,15.80
2019-06-07T01:28:26.329Z,15.70
2019-06-07T01:30:53.997Z,15.90
2019-06-07T01:33:39.632Z,15.70
2019-06-07T01:35:55.798Z,15.90
2019-06-07T01:38:26.882Z,15.80
2019-06-07T01:40:56.597Z,15.80
2019-06-07T01:43:28.174Z,16.00
2019-06-07T01:45:57.353Z,16.00
2019-06-07T01:48:46.195Z,16.00
2019-06-07T01:50:58.169Z,15.90
2019-06-07T01:53:29.159Z,15.80
2019-06-07T01:55:59.007Z,15.70
2019-06-07T01:58:29.245Z,15.70
2019-06-07T02:00:59.800Z,15.70
2019-06-07T02:03:33.143Z,15.60
2019-06-07T02:06:01.768Z,15.40
2019-06-07T02:08:34.318Z,15.20
2019-06-07T02:11:02.683Z,15.30
2019-06-07T02:13:32.229Z,15.40
2019-06-07T02:16:01.793Z,15.20
2019-06-07T02:18:34.668Z,15.40
2019-06-07T02:21:02.614Z,15.20
2019-06-07T02:23:33.757Z,15.00
2019-06-07T02:26:03.484Z,15.00
2019-06-07T02:28:44.392Z,15.00
2019-06-07T02:31:04.384Z,15.00
2019-06-07T02:33:39.730Z,15.10
2019-06-07T02:36:05.246Z,15.00
2019-06-07T02:38:37.496Z,14.90
2019-06-07T02:41:07.615Z,14.90
2019-06-07T02:43:37.483Z,14.90
2019-06-07T02:46:26.457Z,14.90
2019-06-07T02:48:44.730Z,15.00
2019-06-07T02:51:14.254Z,14.70
2019-06-07T02:53:43.826Z,14.50
2019-06-07T02:56:46.617Z,14.50
2019-06-07T02:58:44.674Z,14.70
2019-06-07T03:01:14.651Z,14.80
2019-06-07T03:03:44.213Z,14.90
2019-06-07T03:06:15.062Z,14.80
2019-06-07T03:08:46.417Z,14.70
2019-06-07T03:11:16.490Z,14.60
2019-06-07T03:13:48.661Z,14.70
2019-06-07T03:16:28.751Z,14.60
2019-06-07T03:19:10.742Z,14.70
2019-06-07T03:21:42.453Z,14.60
2019-06-07T03:24:11.975Z,14.50
2019-06-07T03:29:12.905Z,14.50
2019-06-07T03:31:47.566Z,14.60
2019-06-07T03:34:13.734Z,14.70
2019-06-07T03:36:43.365Z,14.70
2019-06-07T03:39:12.918Z,14.70
2019-06-07T03:42:04.706Z,14.50
2019-06-07T03:44:13.758Z,14.40
2019-06-07T03:46:43.327Z,14.50
2019-06-07T03:49:12.894Z,14.70
2019-06-07T03:51:42.447Z,15.00
2019-06-07T03:54:11.980Z,15.10
2019-06-07T03:56:41.576Z,15.20
2019-06-07T03:59:11.173Z,15.30
2019-06-07T04:01:41.301Z,15.10
2019-06-07T04:04:11.012Z,15.20
2019-06-07T04:06:42.472Z,15.30
2019-06-07T04:09:11.930Z,15.20
2019-06-07T04:11:41.569Z,15.10
2019-06-07T04:14:11.108Z,14.90
2019-06-07T04:16:44.372Z,14.90
2019-06-07T04:19:11.963Z,15.20
2019-06-07T04:21:42.991Z,15.30
2019-06-07T04:24:12.706Z,15.50
2019-06-07T04:26:43.773Z,15.50
2019-06-07T04:31:44.896Z,15.70
2019-06-07T04:34:14.474Z,15.70
2019-06-07T04:36:58.539Z,15.50
2019-06-07T04:39:18.213Z,15.50
2019-06-07T04:41:49.494Z,15.40
2019-06-07T04:44:21.724Z,15.30
2019-06-07T04:46:53.775Z,15.50
2019-06-07T04:49:24.974Z,15.30
2019-06-07T04:51:57.238Z,15.40
2019-06-07T04:54:27.041Z,15.60
2019-06-07T04:56:56.611Z,15.80
2019-06-07T05:00:04.169Z,15.90
2019-06-07T05:01:57.419Z,16.00
2019-06-07T05:04:28.966Z,16.10
2019-06-07T05:07:00.659Z,16.10
2019-06-07T05:09:32.628Z,16.10
2019-06-07T05:12:07.084Z,16.00
2019-06-07T05:14:39.087Z,15.90
2019-06-07T05:17:09.108Z,16.20
2019-06-07T05:19:41.736Z,16.20
2019-06-07T05:22:10.212Z,16.20
2019-06-07T05:24:41.555Z,16.10
2019-06-07T05:27:11.270Z,16.20
2019-06-07T05:29:43.804Z,16.20
2019-06-07T05:32:12.884Z,16.30
2019-06-07T05:34:47.125Z,16.40
2019-06-07T05:37:13.937Z,16.50
2019-06-07T05:39:46.359Z,16.40
2019-06-07T05:42:15.216Z,16.30
2019-06-07T05:44:45.810Z,16.10
2019-06-07T05:47:15.749Z,16.10
2019-06-07T05:49:47.168Z,16.10
2019-06-07T05:52:17.922Z,16.30
2019-06-07T05:54:47.581Z,16.40
2019-06-07T05:57:17.441Z,16.30
2019-06-07T05:59:47.678Z,16.40
2019-06-07T06:02:22.725Z,16.40
2019-06-07T06:04:49.668Z,16.40
2019-06-07T06:07:20.045Z,16.70
2019-06-07T06:09:49.755Z,16.90
2019-06-07T06:12:33.966Z,17.10
2019-06-07T06:14:51.065Z,17.40
2019-06-07T06:17:21.074Z,17.20
2019-06-07T06:19:53.427Z,17.00
2019-06-07T06:22:22.352Z,17.00
2019-06-07T06:25:29.696Z,17.20
2019-06-07T06:28:02.594Z,17.30
2019-06-07T06:29:54.726Z,17.40
2019-06-07T06:32:41.618Z,17.60
2019-06-07T06:34:56.041Z,17.70
2019-06-07T06:37:25.875Z,17.70
2019-06-07T06:39:55.701Z,17.70
2019-06-07T06:42:25.293Z,17.90
2019-06-07T06:44:55.035Z,17.80
2019-06-07T06:47:27.683Z,17.80
2019-06-07T06:49:57.392Z,17.90
2019-06-07T06:52:27.356Z,18.10
2019-06-07T06:55:00.809Z,18.10
2019-06-07T06:57:29.001Z,17.90
2019-06-07T07:00:04.886Z,17.80
2019-06-07T07:02:34.632Z,17.70
2019-06-07T07:05:04.760Z,17.60
2019-06-07T07:07:35.184Z,17.50
2019-06-07T07:10:10.224Z,17.50
2019-06-07T07:12:42.911Z,17.60
2019-06-07T07:15:17.785Z,17.80
2019-06-07T07:18:00.565Z,17.90
2019-06-07T07:20:20.193Z,17.80
2019-06-07T07:22:53.570Z,17.80
2019-06-07T07:25:21.448Z,17.80
2019-06-07T07:27:54.956Z,17.90
2019-06-07T07:30:38.162Z,17.90
2019-06-07T07:33:07.953Z,17.80
2019-06-07T07:35:40.886Z,18.10
2019-06-07T07:38:12.411Z,18.20
2019-06-07T07:41:13.455Z,18.40
2019-06-07T07:43:17.847Z,18.30
2019-06-07T07:46:01.538Z,18.40
2019-06-07T07:48:27.003Z,18.70
2019-06-07T07:51:00.623Z,19.00
2019-06-07T07:53:47.496Z,19.10
2019-06-07T07:56:00.298Z,18.90
2019-06-07T07:58:30.490Z,18.90
2019-06-07T08:01:10.376Z,19.00
2019-06-07T08:03:33.138Z,19.10
2019-06-07T08:06:06.053Z,18.60
2019-06-07T08:08:36.044Z,18.60
2019-06-07T08:11:05.927Z,18.80
2019-06-07T08:13:35.673Z,18.90
2019-06-07T08:16:12.232Z,19.20
2019-06-07T08:18:36.840Z,19.40
2019-06-07T08:21:23.310Z,19.40
2019-06-07T08:23:38.706Z,19.50
2019-06-07T08:26:15.321Z,19.60
2019-06-07T08:28:44.957Z,19.80
2019-06-07T08:31:14.691Z,20.00
2019-06-07T08:33:44.377Z,20.00
2019-06-07T08:36:21.937Z,20.00
2019-06-07T08:38:52.276Z,20.20
2019-06-07T08:41:18.956Z,20.40
2019-06-07T08:43:49.221Z,20.50
2019-06-07T08:46:20.157Z,20.50
2019-06-07T08:48:51.709Z,20.80
2019-06-07T08:51:23.814Z,20.80
2019-06-07T08:54:08.983Z,21.10
2019-06-07T08:56:24.771Z,21.00
2019-06-07T08:58:56.914Z,21.00
2019-06-07T09:01:25.815Z,21.00
2019-06-07T09:04:02.653Z,20.90
2019-06-07T09:07:01.805Z,21.20
2019-06-07T09:09:00.439Z,21.80
2019-06-07T09:11:29.382Z,22.20
2019-06-07T09:14:02.194Z,22.60
2019-06-07T09:16:30.376Z,22.70
2019-06-07T09:19:04.109Z,22.50
2019-06-07T09:21:32.344Z,22.00
2019-06-07T09:24:07.087Z,22.00
2019-06-07T09:26:33.333Z,22.10
2019-06-07T09:29:08.266Z,22.10
2019-06-07T09:31:52.146Z,22.20
2019-06-07T09:34:13.739Z,22.30
2019-06-07T09:36:38.087Z,22.50
2019-06-07T09:39:12.271Z,22.80
2019-06-07T09:41:47.390Z,22.30
2019-06-07T09:44:23.678Z,22.40
2019-06-07T09:46:44.593Z,22.80
2019-06-07T09:49:28.964Z,23.00
2019-06-07T09:51:45.717Z,22.60
2019-06-07T09:55:02.594Z,22.30
2019-06-07T09:56:46.658Z,22.40
2019-06-07T09:59:17.257Z,22.30
2019-06-07T10:01:46.820Z,22.30
2019-06-07T10:04:28.557Z,22.60
2019-06-07T10:06:47.678Z,22.80
2019-06-07T10:11:48.860Z,22.70
2019-06-07T10:14:21.903Z,22.90
2019-06-07T10:16:56.478Z,23.30
2019-06-07T10:22:28.605Z,24.40
2019-06-07T10:24:59.583Z,24.40
2019-06-07T10:27:29.345Z,24.40
2019-06-07T10:30:00.198Z,24.50
2019-06-07T10:32:29.948Z,24.20
2019-06-07T10:35:00.527Z,23.50
2019-06-07T10:37:30.179Z,24.00
2019-06-07T10:40:00.606Z,24.20
2019-06-07T10:42:30.419Z,24.10
2019-06-07T10:45:02.253Z,24.20
2019-06-07T10:47:31.376Z,24.20
2019-06-07T10:50:01.884Z,24.50
2019-06-07T10:52:31.627Z,24.80
2019-06-07T10:55:02.427Z,25.20
2019-06-07T10:57:32.128Z,25.60
2019-06-07T11:00:03.509Z,25.70
2019-06-07T11:02:33.470Z,25.00
2019-06-07T11:05:03.690Z,24.60
2019-06-07T11:07:33.610Z,25.60
2019-06-07T11:10:09.396Z,26.40
2019-06-07T11:12:34.618Z,27.00
2019-06-07T11:15:04.783Z,27.30
2019-06-07T11:17:34.340Z,27.20
2019-06-07T11:20:05.974Z,26.50
2019-06-07T11:22:35.636Z,26.80
2019-06-07T11:25:08.647Z,26.80
2019-06-07T11:27:38.315Z,26.30
2019-06-07T11:30:10.540Z,25.90
2019-06-07T11:32:40.338Z,25.30
2019-06-07T11:35:13.544Z,24.90
2019-06-07T11:37:43.145Z,25.00
2019-06-07T11:40:35.581Z,25.30
2019-06-07T11:42:44.626Z,25.70
2019-06-07T11:45:15.392Z,25.90
2019-06-07T11:47:45.165Z,26.30
2019-06-07T11:50:15.698Z,26.00
2019-06-07T11:52:46.605Z,26.30
2019-06-07T11:55:16.469Z,26.00
2019-06-07T11:57:46.082Z,26.60
2019-06-07T12:00:18.971Z,26.90
2019-06-07T12:02:48.615Z,26.80
2019-06-07T12:05:20.240Z,26.30
2019-06-07T12:07:49.503Z,26.20
2019-06-07T12:10:22.813Z,26.60
2019-06-07T12:12:50.477Z,26.60
2019-06-07T12:15:20.119Z,27.30
2019-06-07T12:17:49.675Z,27.10
2019-06-07T12:20:21.168Z,27.10
2019-06-07T12:22:50.789Z,27.20
2019-06-07T12:25:24.790Z,27.20
2019-06-07T12:27:51.856Z,28.20
2019-06-07T12:30:27.384Z,28.50
2019-06-07T12:32:55.057Z,29.30
2019-06-07T12:35:24.716Z,29.30
2019-06-07T12:37:54.281Z,29.80
2019-06-07T12:40:30.610Z,30.00
2019-06-07T12:42:55.921Z,30.00
2019-06-07T12:45:42.906Z,28.90
2019-06-07T12:47:56.822Z,28.40
2019-06-07T12:50:41.627Z,28.40
2019-06-07T12:52:57.683Z,29.10
2019-06-07T12:55:28.564Z,29.80
2019-06-07T12:57:58.330Z,29.90
2019-06-07T13:00:28.204Z,30.00
2019-06-07T13:02:58.040Z,29.70
2019-06-07T13:05:27.975Z,29.40
2019-06-07T13:07:57.799Z,29.20
2019-06-07T13:10:28.541Z,29.60
2019-06-07T13:12:58.286Z,29.40
2019-06-07T13:15:28.319Z,29.60
2019-06-07T13:17:57.978Z,29.60
2019-06-07T13:20:28.875Z,29.80
2019-06-07T13:22:58.736Z,30.30
2019-06-07T13:25:44.931Z,30.50
2019-06-07T13:27:59.689Z,30.00
2019-06-07T13:30:29.421Z,30.50
2019-06-07T13:32:58.948Z,30.90
2019-06-07T13:35:29.701Z,31.60
2019-06-07T13:37:59.867Z,30.20
2019-06-07T13:40:29.636Z,29.70
2019-06-07T13:42:59.310Z,30.00
2019-06-07T13:45:30.131Z,30.50
2019-06-07T13:47:59.725Z,30.40
2019-06-07T13:50:30.271Z,30.40
2019-06-07T13:52:59.949Z,31.40
2019-06-07T13:55:29.825Z,31.50
2019-06-07T13:57:59.641Z,31.60
2019-06-07T14:00:29.237Z,31.90
2019-06-07T14:02:58.825Z,32.50
2019-06-07T14:05:29.141Z,32.70
2019-06-07T14:07:58.901Z,33.10
2019-06-07T14:10:29.546Z,33.00
2019-06-07T14:12:59.310Z,33.00
2019-06-07T14:15:34.137Z,33.00
2019-06-07T14:18:02.994Z,32.50
2019-06-07T14:20:34.753Z,32.40
2019-06-07T14:23:04.510Z,32.60
2019-06-07T14:25:34.104Z,32.40
2019-06-07T14:28:11.052Z,32.70
2019-06-07T14:30:36.162Z,32.50
2019-06-07T14:33:05.819Z,31.70
2019-06-07T14:35:35.377Z,31.00
2019-06-07T14:38:05.117Z,31.50
2019-06-07T14:40:34.707Z,31.60
2019-06-07T14:43:04.368Z,32.40
2019-06-07T14:45:34.345Z,32.20
2019-06-07T14:48:04.149Z,32.00
2019-06-07T14:50:34.779Z,32.80
2019-06-07T14:53:04.542Z,33.70
2019-06-07T14:55:35.072Z,33.50
2019-06-07T14:58:05.866Z,33.80
2019-06-07T15:00:41.460Z,33.70
2019-06-07T15:03:11.365Z,34.00
2019-06-07T15:05:41.011Z,33.20
2019-06-07T15:08:10.577Z,33.50
2019-06-07T15:10:41.080Z,33.70
2019-06-07T15:13:10.631Z,33.40
2019-06-07T15:15:42.093Z,33.50
2019-06-07T15:18:11.714Z,33.50
2019-06-07T15:20:41.647Z,34.10
2019-06-07T15:23:11.184Z,34.20
2019-06-07T15:25:40.761Z,33.20
2019-06-07T15:28:10.426Z,32.70
2019-06-07T15:30:40.072Z,32.80
2019-06-07T15:33:09.615Z,33.20
2019-06-07T15:35:39.231Z,33.30
2019-06-07T15:38:08.831Z,33.50
2019-06-07T15:40:39.714Z,33.60
2019-06-07T15:43:09.513Z,32.50
2019-06-07T15:45:39.742Z,32.30
2019-06-07T15:48:09.456Z,32.90
2019-06-07T15:50:40.502Z,32.60
2019-06-07T15:53:10.194Z,33.10
2019-06-07T15:55:45.337Z,33.30
2019-06-07T15:58:10.993Z,33.00
2019-06-07T16:00:42.271Z,32.90
2019-06-07T16:03:11.884Z,32.90
2019-06-07T16:05:41.452Z,33.50
2019-06-07T16:08:11.019Z,33.60
2019-06-07T16:10:40.977Z,32.50
2019-06-07T16:13:10.829Z,32.80
2019-06-07T16:15:41.355Z,33.20
2019-06-07T16:18:11.135Z,32.80
2019-06-07T16:20:41.465Z,32.00
2019-06-07T16:23:12.141Z,32.00
2019-06-07T16:25:42.205Z,32.40
2019-06-07T16:28:11.964Z,31.90
2019-06-07T16:30:42.732Z,32.50
2019-06-07T16:33:12.325Z,32.60
2019-06-07T16:35:43.122Z,31.90
2019-06-07T16:38:12.984Z,32.00
2019-06-07T16:40:42.647Z,32.10
2019-06-07T16:43:17.826Z,32.00
2019-06-07T16:45:44.878Z,31.70
2019-06-07T16:48:14.563Z,30.90
2019-06-07T16:50:45.163Z,30.60
2019-06-07T16:53:14.905Z,31.00
2019-06-07T16:55:44.851Z,31.00
2019-06-07T16:58:14.704Z,30.70
2019-06-07T17:00:44.333Z,30.50
2019-06-07T17:03:14.103Z,29.80
2019-06-07T17:05:46.952Z,29.10
2019-06-07T17:08:14.971Z,28.70
2019-06-07T17:10:44.560Z,28.00
2019-06-07T17:13:14.196Z,27.90
2019-06-07T17:15:44.921Z,27.60
2019-06-07T17:18:14.512Z,27.50
2019-06-07T17:20:45.318Z,27.40
2019-06-07T17:23:15.045Z,27.30
2019-06-07T17:25:45.432Z,27.20
2019-06-07T17:28:15.358Z,27.10
2019-06-07T17:30:46.124Z,27.30
2019-06-07T17:33:15.856Z,27.50
2019-06-07T17:35:46.461Z,27.80
2019-06-07T17:38:16.404Z,27.80
2019-06-07T17:40:47.124Z,27.50
2019-06-07T17:43:16.869Z,27.30
2019-06-07T17:45:47.473Z,27.10
2019-06-07T17:48:23.759Z,26.90
2019-06-07T17:50:52.764Z,26.80
2019-06-07T17:53:22.557Z,26.80
2019-06-07T17:55:53.190Z,26.40
2019-06-07T17:58:22.748Z,26.40
2019-06-07T18:00:53.184Z,26.40
2019-06-07T18:03:22.791Z,26.20
2019-06-07T18:05:54.134Z,26.10
2019-06-07T18:08:24.910Z,25.90
2019-06-07T18:10:54.522Z,25.90
2019-06-07T18:13:24.064Z,25.80
2019-06-07T18:15:57.865Z,25.90
2019-06-07T18:18:25.906Z,25.90
2019-06-07T18:20:55.703Z,25.70
2019-06-07T18:23:25.343Z,25.50
2019-06-07T18:25:54.903Z,25.40
2019-06-07T18:28:24.519Z,25.20
2019-06-07T18:30:55.296Z,25.30
2019-06-07T18:33:24.882Z,25.20
2019-06-07T18:35:55.284Z,25.10
2019-06-07T18:38:25.019Z,24.90
2019-06-07T18:40:55.365Z,24.90
2019-06-07T18:43:26.092Z,24.80
2019-06-07T18:45:55.985Z,24.70
2019-06-07T18:48:25.633Z,24.50
2019-06-07T18:50:55.224Z,24.30
2019-06-07T18:53:24.780Z,24.40
2019-06-07T18:55:54.357Z,24.20
2019-06-07T18:58:23.917Z,24.20
2019-06-07T19:00:53.807Z,24.10
2019-06-07T19:03:23.488Z,24.20
2019-06-07T19:05:54.025Z,24.10
2019-06-07T19:08:23.948Z,23.90
2019-06-07T19:10:54.730Z,23.70
2019-06-07T19:13:24.497Z,23.60
2019-06-07T19:15:55.356Z,23.70
2019-06-07T19:18:25.203Z,23.60
2019-06-07T19:20:54.764Z,23.50
2019-06-07T19:23:24.672Z,23.50
2019-06-07T19:25:54.340Z,23.30
2019-06-07T19:28:23.953Z,23.20
2019-06-07T19:30:53.522Z,23.10
2019-06-07T19:33:23.124Z,22.90
2019-06-07T19:35:53.456Z,22.70
2019-06-07T19:38:23.055Z,22.60
2019-06-07T19:40:53.761Z,22.60
2019-06-07T19:43:23.352Z,22.60
2019-06-07T19:45:53.862Z,22.70
2019-06-07T19:48:23.710Z,22.70
2019-06-07T19:50:54.829Z,22.60
2019-06-07T19:53:24.568Z,22.60
2019-06-07T19:55:55.029Z,22.50
2019-06-07T19:58:24.604Z,22.40
2019-06-07T20:00:55.440Z,22.40
2019-06-07T20:03:25.109Z,22.30
2019-06-07T20:05:55.982Z,22.20
2019-06-07T20:08:26.768Z,22.30
2019-06-07T20:10:56.471Z,22.20
2019-06-07T20:13:26.161Z,22.20
2019-06-07T20:15:56.868Z,22.20
2019-06-07T20:18:28.097Z,22.20
2019-06-07T20:20:58.560Z,22.10
2019-06-07T20:23:28.254Z,22.00
2019-06-07T20:25:57.793Z,22.00
2019-06-07T20:28:27.383Z,22.00
2019-06-07T20:30:57.655Z,21.90
2019-06-07T20:33:28.365Z,21.90
2019-06-07T20:35:58.634Z,21.70
2019-06-07T20:38:28.303Z,21.60
2019-06-07T20:40:58.946Z,21.70
2019-06-07T20:43:29.081Z,21.70
2019-06-07T20:46:00.704Z,21.50
2019-06-07T20:48:30.253Z,21.50
2019-06-07T20:51:01.232Z,21.60
2019-06-07T20:53:33.977Z,21.70
2019-06-07T20:56:04.692Z,21.70
2019-06-07T20:58:34.465Z,21.60
2019-06-07T21:01:04.798Z,21.60
2019-06-07T21:03:34.505Z,21.50
2019-06-07T21:06:05.446Z,21.40
2019-06-07T21:08:35.220Z,21.40
2019-06-07T21:11:05.798Z,21.30
2019-06-07T21:13:36.478Z,21.30
2019-06-07T21:16:06.185Z,21.30
2019-06-07T21:18:35.807Z,21.20
2019-06-07T21:21:06.363Z,21.10
2019-06-07T21:23:36.096Z,21.10
2019-06-07T21:26:06.844Z,21.20
2019-06-07T21:28:39.655Z,21.10
2019-06-07T21:31:08.270Z,21.10
2019-06-07T21:33:37.876Z,21.10
2019-06-07T21:36:07.870Z,21.10
2019-06-07T21:38:37.453Z,21.10
2019-06-07T21:41:08.208Z,21.00
2019-06-07T21:43:37.908Z,21.00
2019-06-07T21:46:12.786Z,21.00
2019-06-07T21:48:38.761Z,21.00
2019-06-07T21:51:08.633Z,20.90
2019-06-07T21:53:38.368Z,20.80
2019-06-07T21:56:09.069Z,20.80
2019-06-07T21:58:38.800Z,20.80
2019-06-07T22:01:33.459Z,20.60
2019-06-07T22:04:03.473Z,20.60
2019-06-07T22:06:33.269Z,20.40
2019-06-07T22:09:05.599Z,20.30
2019-06-07T22:11:35.341Z,20.20
2019-06-07T22:14:06.276Z,20.20
2019-06-07T22:16:35.965Z,20.20
2019-06-07T22:19:06.533Z,20.20
2019-06-07T22:21:36.210Z,20.20
2019-06-07T22:24:06.886Z,20.20
2019-06-07T22:26:37.558Z,20.20
2019-06-07T22:29:08.231Z,20.20
2019-06-07T22:31:38.065Z,20.20
2019-06-07T22:34:08.791Z,20.20
2019-06-07T22:36:38.544Z,20.20
2019-06-07T22:39:09.544Z,20.20
2019-06-07T22:41:39.889Z,20.20
2019-06-07T22:44:10.662Z,20.20
2019-06-07T22:46:40.323Z,20.10
2019-06-07T22:49:11.275Z,20.00
2019-06-07T22:51:40.985Z,20.00
2019-06-07T22:54:11.749Z,19.90
2019-06-07T22:56:50.107Z,19.80
2019-06-07T22:59:20.648Z,19.50
2019-06-07T23:01:50.345Z,19.40
2019-06-07T23:04:19.933Z,19.50
2019-06-07T23:06:49.485Z,19.50
2019-06-07T23:09:19.775Z,19.30
2019-06-07T23:11:49.509Z,19.30
2019-06-07T23:14:19.615Z,19.30
2019-06-07T23:16:55.456Z,19.30
2019-06-07T23:19:20.672Z,19.40
2019-06-07T23:21:50.258Z,19.40
2019-06-07T23:24:21.377Z,19.30
2019-06-07T23:26:51.136Z,19.50
2019-06-07T23:29:20.769Z,19.50
2019-06-07T23:31:50.521Z,19.60
2019-06-07T23:34:21.001Z,19.60
2019-06-07T23:36:51.792Z,19.70
2019-06-07T23:39:22.470Z,19.60
2019-06-07T23:41:52.250Z,19.60
2019-06-07T23:44:21.914Z,19.60
2019-06-07T23:46:51.499Z,19.60
2019-06-07T23:49:22.392Z,19.50
2019-06-07T23:51:52.319Z,19.30
2019-06-07T23:54:22.184Z,19.30
2019-06-07T23:56:52.509Z,19.30
2019-06-07T23:59:23.943Z,19.20
